This is the latest recevied weather packets stored in our database for station/object 9M2EVR-2. If no packets are shown the sender has not sent any weather packets the latest 10 day(s).
| Time | Temp. | Humidity | Pressure | Rain* | Wind** | Luminosity | Snow |
|---|---|---|---|---|---|---|---|
| 1777493800 | 38.89° C | 45% | 1006.1 hPa | - | - | - | - |
| 1777492900 | 39.44° C | 44% | 1006.4 hPa | - | - | - | - |
| 1777491999 | 41.11° C | 42% | 1006.7 hPa | - | - | - | - |
| 1777491098 | 41.67° C | 41% | 1006.7 hPa | - | - | - | - |
| 1777490197 | 41.67° C | 40% | 1006.8 hPa | - | - | - | - |
| 1777489296 | 42.78° C | 39% | 1006.8 hPa | - | - | - | - |
| 1777488396 | 43.33° C | 37% | 1006.7 hPa | - | - | - | - |
| 1777487495 | 44.44° C | 37% | 1006.8 hPa | - | - | - | - |
| 1777486594 | 45° C | 35% | 1006.7 hPa | - | - | - | - |
| 1777485693 | 45.56° C | 35% | 1006.8 hPa | - | - | - | - |
| 1777484792 | 46.11° C | 35% | 1007.1 hPa | - | - | - | - |
| 1777483892 | 46.11° C | 35% | 1007.4 hPa | - | - | - | - |
| 1777482991 | 45.56° C | 35% | 1007.6 hPa | - | - | - | - |
| 1777482090 | 45.56° C | 35% | 1007.6 hPa | - | - | - | - |
| 1777481189 | 45.56° C | 36% | 1007.9 hPa | - | - | - | - |
| 1777480288 | 45.56° C | 36% | 1007.9 hPa | - | - | - | - |
| 1777479387 | 45° C | 37% | 1007.9 hPa | - | - | - | - |
| 1777478487 | 44.44° C | 39% | 1008.2 hPa | - | - | - | - |
| 1777477586 | 42.78° C | 42% | 1008.3 hPa | - | - | - | - |
| 1777476499 | 36.11° C | 52% | 1008.2 hPa | - | - | - | - |
| 1777475598 | 36.11° C | 51% | 1008 hPa | - | - | - | - |
| 1777472035 | 36.67° C | 50% | 1007.7 hPa | - | - | - | - |
| 1777471134 | 36.67° C | 50% | 1007.5 hPa | - | - | - | - |
| 1777470233 | 36.67° C | 49% | 1007.2 hPa | - | - | - | - |
| 1777469331 | 36.67° C | 49% | 1006.9 hPa | - | - | - | - |
* Rain since midnight (hover to see other rain measurements)
** Current wind speed in m/s (hover to see current wind gust speed)